sensor_id;sensor_type;location;lat;lon;timestamp;temperature;humidity
33793;DHT22;20105;48.764;9.178;2022-09-09T00:10:03;16.80;99.90
33793;DHT22;20105;48.764;9.178;2022-09-09T00:15:18;16.90;99.90
33793;DHT22;20105;48.764;9.178;2022-09-09T00:17:48;16.80;99.90
33793;DHT22;20105;48.764;9.178;2022-09-09T00:20:32;16.80;99.90
33793;DHT22;20105;48.764;9.178;2022-09-09T00:23:12;16.80;99.90
33793;DHT22;20105;48.764;9.178;2022-09-09T00:28:23;16.90;99.90
33793;DHT22;20105;48.764;9.178;2022-09-09T00:30:49;16.80;99.90
33793;DHT22;20105;48.764;9.178;2022-09-09T00:33:18;16.80;99.90
33793;DHT22;20105;48.764;9.178;2022-09-09T00:35:57;16.80;99.90
33793;DHT22;20105;48.764;9.178;2022-09-09T00:38:30;16.80;99.90
33793;DHT22;20105;48.764;9.178;2022-09-09T00:41:22;16.90;99.90
33793;DHT22;20105;48.764;9.178;2022-09-09T00:44:02;16.90;99.90
33793;DHT22;20105;48.764;9.178;2022-09-09T00:52:08;17.00;99.90
33793;DHT22;20105;48.764;9.178;2022-09-09T00:57:29;17.10;99.90
33793;DHT22;20105;48.764;9.178;2022-09-09T01:00:17;17.10;99.90
33793;DHT22;20105;48.764;9.178;2022-09-09T01:05:42;17.10;99.90
33793;DHT22;20105;48.764;9.178;2022-09-09T01:10:51;17.10;99.90
33793;DHT22;20105;48.764;9.178;2022-09-09T01:13:30;17.10;99.90
33793;DHT22;20105;48.764;9.178;2022-09-09T01:16:01;17.10;99.90
33793;DHT22;20105;48.764;9.178;2022-09-09T01:18:38;17.10;99.90
33793;DHT22;20105;48.764;9.178;2022-09-09T01:21:45;17.10;99.90
33793;DHT22;20105;48.764;9.178;2022-09-09T01:24:16;17.20;99.90
33793;DHT22;20105;48.764;9.178;2022-09-09T01:26:48;17.20;99.90
33793;DHT22;20105;48.764;9.178;2022-09-09T01:29:17;17.00;99.90
33793;DHT22;20105;48.764;9.178;2022-09-09T01:31:58;16.90;99.90
33793;DHT22;20105;48.764;9.178;2022-09-09T01:34:27;17.00;99.90
33793;DHT22;20105;48.764;9.178;2022-09-09T01:37:09;17.10;99.90
33793;DHT22;20105;48.764;9.178;2022-09-09T01:39:36;17.10;99.90
33793;DHT22;20105;48.764;9.178;2022-09-09T01:42:04;17.10;99.90
33793;DHT22;20105;48.764;9.178;2022-09-09T01:44:31;17.10;99.90
33793;DHT22;20105;48.764;9.178;2022-09-09T01:46:57;17.10;99.90
33793;DHT22;20105;48.764;9.178;2022-09-09T01:49:22;17.20;99.90
33793;DHT22;20105;48.764;9.178;2022-09-09T01:51:55;17.10;99.90
33793;DHT22;20105;48.764;9.178;2022-09-09T01:54:24;16.90;99.90
33793;DHT22;20105;48.764;9.178;2022-09-09T01:57:15;16.70;99.90
33793;DHT22;20105;48.764;9.178;2022-09-09T01:59:59;16.70;99.90
33793;DHT22;20105;48.764;9.178;2022-09-09T02:05:41;16.60;99.90
33793;DHT22;20105;48.764;9.178;2022-09-09T02:08:21;16.70;99.90
33793;DHT22;20105;48.764;9.178;2022-09-09T02:10:59;16.70;99.90
33793;DHT22;20105;48.764;9.178;2022-09-09T02:13:29;16.80;99.90
33793;DHT22;20105;48.764;9.178;2022-09-09T02:16:02;16.90;99.90
33793;DHT22;20105;48.764;9.178;2022-09-09T02:18:32;16.90;99.90
33793;DHT22;20105;48.764;9.178;2022-09-09T02:21:01;17.00;99.90
33793;DHT22;20105;48.764;9.178;2022-09-09T02:23:28;17.00;99.90
33793;DHT22;20105;48.764;9.178;2022-09-09T02:25:55;16.90;99.90
33793;DHT22;20105;48.764;9.178;2022-09-09T02:28:24;16.90;99.90
33793;DHT22;20105;48.764;9.178;2022-09-09T02:30:51;16.80;99.90
33793;DHT22;20105;48.764;9.178;2022-09-09T02:33:24;16.70;99.90
33793;DHT22;20105;48.764;9.178;2022-09-09T02:35:52;16.50;99.90
33793;DHT22;20105;48.764;9.178;2022-09-09T02:38:21;16.40;99.90
33793;DHT22;20105;48.764;9.178;2022-09-09T02:40:50;16.20;99.90
33793;DHT22;20105;48.764;9.178;2022-09-09T02:45:51;15.90;99.90
33793;DHT22;20105;48.764;9.178;2022-09-09T02:49:05;15.80;99.90
33793;DHT22;20105;48.764;9.178;2022-09-09T02:56:40;16.10;99.90
33793;DHT22;20105;48.764;9.178;2022-09-09T02:59:07;16.20;99.90
33793;DHT22;20105;48.764;9.178;2022-09-09T03:01:32;16.20;99.90
33793;DHT22;20105;48.764;9.178;2022-09-09T03:03:58;16.10;99.90
33793;DHT22;20105;48.764;9.178;2022-09-09T03:06:24;16.10;99.90
33793;DHT22;20105;48.764;9.178;2022-09-09T03:08:49;16.20;99.90
33793;DHT22;20105;48.764;9.178;2022-09-09T03:11:16;16.20;99.90
33793;DHT22;20105;48.764;9.178;2022-09-09T03:13:41;16.20;99.90
33793;DHT22;20105;48.764;9.178;2022-09-09T03:16:07;16.20;99.90
33793;DHT22;20105;48.764;9.178;2022-09-09T03:18:32;16.20;99.90
33793;DHT22;20105;48.764;9.178;2022-09-09T03:21:00;16.20;99.90
33793;DHT22;20105;48.764;9.178;2022-09-09T03:23:25;16.20;99.90
33793;DHT22;20105;48.764;9.178;2022-09-09T03:25:51;16.30;99.90
33793;DHT22;20105;48.764;9.178;2022-09-09T03:28:17;16.30;99.90
33793;DHT22;20105;48.764;9.178;2022-09-09T03:30:43;16.40;99.90
33793;DHT22;20105;48.764;9.178;2022-09-09T03:33:09;16.50;99.90
33793;DHT22;20105;48.764;9.178;2022-09-09T03:35:34;16.50;99.90
33793;DHT22;20105;48.764;9.178;2022-09-09T03:38:00;16.60;99.90
33793;DHT22;20105;48.764;9.178;2022-09-09T03:40:26;16.60;99.90
33793;DHT22;20105;48.764;9.178;2022-09-09T03:42:52;16.60;99.90
33793;DHT22;20105;48.764;9.178;2022-09-09T03:45:17;16.70;99.90
33793;DHT22;20105;48.764;9.178;2022-09-09T03:47:43;16.70;99.90
33793;DHT22;20105;48.764;9.178;2022-09-09T03:50:09;16.70;99.90
33793;DHT22;20105;48.764;9.178;2022-09-09T03:52:37;16.70;99.90
33793;DHT22;20105;48.764;9.178;2022-09-09T03:55:03;16.70;99.90
33793;DHT22;20105;48.764;9.178;2022-09-09T03:57:29;16.70;99.90
33793;DHT22;20105;48.764;9.178;2022-09-09T03:59:55;16.60;99.90
33793;DHT22;20105;48.764;9.178;2022-09-09T04:02:21;16.60;99.90
33793;DHT22;20105;48.764;9.178;2022-09-09T04:04:46;16.60;99.90
33793;DHT22;20105;48.764;9.178;2022-09-09T04:07:12;16.60;99.90
33793;DHT22;20105;48.764;9.178;2022-09-09T04:09:38;16.50;99.90
33793;DHT22;20105;48.764;9.178;2022-09-09T04:12:04;16.50;99.90
33793;DHT22;20105;48.764;9.178;2022-09-09T04:14:29;16.30;99.90
33793;DHT22;20105;48.764;9.178;2022-09-09T04:16:55;16.30;99.90
33793;DHT22;20105;48.764;9.178;2022-09-09T04:19:22;16.20;99.90
33793;DHT22;20105;48.764;9.178;2022-09-09T04:21:48;16.20;99.90
33793;DHT22;20105;48.764;9.178;2022-09-09T04:24:15;16.10;99.90
33793;DHT22;20105;48.764;9.178;2022-09-09T04:26:41;16.10;99.90
33793;DHT22;20105;48.764;9.178;2022-09-09T04:29:07;16.20;99.90
33793;DHT22;20105;48.764;9.178;2022-09-09T04:31:33;16.20;99.90
33793;DHT22;20105;48.764;9.178;2022-09-09T04:36:27;16.10;99.90
33793;DHT22;20105;48.764;9.178;2022-09-09T04:38:53;16.00;99.90
33793;DHT22;20105;48.764;9.178;2022-09-09T04:41:18;16.00;99.90
33793;DHT22;20105;48.764;9.178;2022-09-09T04:43:44;15.90;99.90
33793;DHT22;20105;48.764;9.178;2022-09-09T04:46:10;15.90;99.90
33793;DHT22;20105;48.764;9.178;2022-09-09T04:48:36;15.80;99.90
33793;DHT22;20105;48.764;9.178;2022-09-09T04:51:04;15.80;99.90
33793;DHT22;20105;48.764;9.178;2022-09-09T04:53:30;15.80;99.90
33793;DHT22;20105;48.764;9.178;2022-09-09T04:56:13;15.80;99.90
33793;DHT22;20105;48.764;9.178;2022-09-09T04:58:40;15.80;99.90
33793;DHT22;20105;48.764;9.178;2022-09-09T05:01:16;15.80;99.90
33793;DHT22;20105;48.764;9.178;2022-09-09T05:03:43;15.80;99.90
33793;DHT22;20105;48.764;9.178;2022-09-09T05:06:12;15.80;99.90
33793;DHT22;20105;48.764;9.178;2022-09-09T05:08:40;15.80;99.90
33793;DHT22;20105;48.764;9.178;2022-09-09T05:11:14;15.80;99.90
33793;DHT22;20105;48.764;9.178;2022-09-09T05:13:41;15.80;99.90
33793;DHT22;20105;48.764;9.178;2022-09-09T05:16:07;15.90;99.90
33793;DHT22;20105;48.764;9.178;2022-09-09T05:18:39;16.00;99.90
33793;DHT22;20105;48.764;9.178;2022-09-09T05:21:06;16.00;99.90
33793;DHT22;20105;48.764;9.178;2022-09-09T05:23:34;16.00;99.90
33793;DHT22;20105;48.764;9.178;2022-09-09T05:26:00;16.00;99.90
33793;DHT22;20105;48.764;9.178;2022-09-09T05:28:26;16.00;99.90
33793;DHT22;20105;48.764;9.178;2022-09-09T05:30:57;16.10;99.90
33793;DHT22;20105;48.764;9.178;2022-09-09T05:33:23;16.20;99.90
33793;DHT22;20105;48.764;9.178;2022-09-09T05:35:58;16.20;99.90
33793;DHT22;20105;48.764;9.178;2022-09-09T05:38:24;16.20;99.90
33793;DHT22;20105;48.764;9.178;2022-09-09T05:40:51;16.30;99.90
33793;DHT22;20105;48.764;9.178;2022-09-09T05:43:17;16.30;99.90
33793;DHT22;20105;48.764;9.178;2022-09-09T05:45:43;16.40;99.90
33793;DHT22;20105;48.764;9.178;2022-09-09T05:48:12;16.30;99.90
33793;DHT22;20105;48.764;9.178;2022-09-09T05:50:37;16.40;99.90
33793;DHT22;20105;48.764;9.178;2022-09-09T05:53:03;16.40;99.90
33793;DHT22;20105;48.764;9.178;2022-09-09T05:55:29;16.50;99.90
33793;DHT22;20105;48.764;9.178;2022-09-09T05:57:54;16.50;99.90
33793;DHT22;20105;48.764;9.178;2022-09-09T06:00:20;16.50;99.90
33793;DHT22;20105;48.764;9.178;2022-09-09T06:02:52;16.50;99.90
33793;DHT22;20105;48.764;9.178;2022-09-09T06:05:19;16.60;99.90
33793;DHT22;20105;48.764;9.178;2022-09-09T06:07:44;16.60;99.90
33793;DHT22;20105;48.764;9.178;2022-09-09T06:10:11;16.60;99.90
33793;DHT22;20105;48.764;9.178;2022-09-09T06:12:40;16.60;99.90
33793;DHT22;20105;48.764;9.178;2022-09-09T06:15:06;16.60;99.90
33793;DHT22;20105;48.764;9.178;2022-09-09T06:17:34;16.70;99.90
33793;DHT22;20105;48.764;9.178;2022-09-09T06:19:59;16.60;99.90
33793;DHT22;20105;48.764;9.178;2022-09-09T06:22:25;16.60;99.90
33793;DHT22;20105;48.764;9.178;2022-09-09T06:24:50;16.60;99.90
33793;DHT22;20105;48.764;9.178;2022-09-09T06:27:16;16.50;99.90
33793;DHT22;20105;48.764;9.178;2022-09-09T06:29:42;16.50;99.90
33793;DHT22;20105;48.764;9.178;2022-09-09T06:32:07;16.50;99.90
33793;DHT22;20105;48.764;9.178;2022-09-09T06:34:34;16.50;99.90
33793;DHT22;20105;48.764;9.178;2022-09-09T06:37:00;16.50;99.90
33793;DHT22;20105;48.764;9.178;2022-09-09T06:39:26;16.50;99.90
33793;DHT22;20105;48.764;9.178;2022-09-09T06:41:52;16.60;99.90
33793;DHT22;20105;48.764;9.178;2022-09-09T06:44:18;16.60;99.90
33793;DHT22;20105;48.764;9.178;2022-09-09T06:46:44;16.70;99.90
33793;DHT22;20105;48.764;9.178;2022-09-09T06:49:13;16.80;99.90
33793;DHT22;20105;48.764;9.178;2022-09-09T06:51:44;17.00;99.90
33793;DHT22;20105;48.764;9.178;2022-09-09T06:54:12;16.90;99.90
33793;DHT22;20105;48.764;9.178;2022-09-09T06:56:42;17.00;99.90
33793;DHT22;20105;48.764;9.178;2022-09-09T06:59:08;17.00;99.90
33793;DHT22;20105;48.764;9.178;2022-09-09T07:01:43;17.10;99.90
33793;DHT22;20105;48.764;9.178;2022-09-09T07:04:09;17.10;99.90
33793;DHT22;20105;48.764;9.178;2022-09-09T07:06:44;17.10;99.90
33793;DHT22;20105;48.764;9.178;2022-09-09T07:09:13;17.20;99.90
33793;DHT22;20105;48.764;9.178;2022-09-09T07:11:44;17.50;99.90
33793;DHT22;20105;48.764;9.178;2022-09-09T07:14:10;17.70;99.90
33793;DHT22;20105;48.764;9.178;2022-09-09T07:16:41;17.70;99.90
33793;DHT22;20105;48.764;9.178;2022-09-09T07:19:07;17.80;99.90
33793;DHT22;20105;48.764;9.178;2022-09-09T07:21:33;17.70;99.90
33793;DHT22;20105;48.764;9.178;2022-09-09T07:23:59;17.60;99.90
33793;DHT22;20105;48.764;9.178;2022-09-09T07:26:28;17.70;99.90
33793;DHT22;20105;48.764;9.178;2022-09-09T07:28:55;17.90;99.90
33793;DHT22;20105;48.764;9.178;2022-09-09T07:31:31;18.20;99.90
33793;DHT22;20105;48.764;9.178;2022-09-09T07:33:58;18.10;99.90
33793;DHT22;20105;48.764;9.178;2022-09-09T07:36:27;18.00;99.90
33793;DHT22;20105;48.764;9.178;2022-09-09T07:38:55;18.10;99.90
33793;DHT22;20105;48.764;9.178;2022-09-09T07:41:27;18.20;99.90
33793;DHT22;20105;48.764;9.178;2022-09-09T07:43:53;18.40;99.90
33793;DHT22;20105;48.764;9.178;2022-09-09T07:46:21;18.70;99.90
33793;DHT22;20105;48.764;9.178;2022-09-09T07:48:48;18.90;99.90
33793;DHT22;20105;48.764;9.178;2022-09-09T07:51:20;18.90;99.90
33793;DHT22;20105;48.764;9.178;2022-09-09T07:54:14;18.70;99.90
33793;DHT22;20105;48.764;9.178;2022-09-09T07:56:41;19.00;99.90
33793;DHT22;20105;48.764;9.178;2022-09-09T07:59:08;18.70;99.90
33793;DHT22;20105;48.764;9.178;2022-09-09T08:01:37;18.60;99.90
33793;DHT22;20105;48.764;9.178;2022-09-09T08:04:06;18.60;99.90
33793;DHT22;20105;48.764;9.178;2022-09-09T08:06:36;18.80;99.90
33793;DHT22;20105;48.764;9.178;2022-09-09T08:09:10;18.90;99.90
33793;DHT22;20105;48.764;9.178;2022-09-09T08:11:36;19.20;99.90
33793;DHT22;20105;48.764;9.178;2022-09-09T08:14:03;19.40;99.90
33793;DHT22;20105;48.764;9.178;2022-09-09T08:16:31;19.40;99.90
33793;DHT22;20105;48.764;9.178;2022-09-09T08:18:58;19.40;99.90
33793;DHT22;20105;48.764;9.178;2022-09-09T08:21:28;19.40;99.90
33793;DHT22;20105;48.764;9.178;2022-09-09T08:23:57;19.50;99.90
33793;DHT22;20105;48.764;9.178;2022-09-09T08:26:25;19.70;99.90
33793;DHT22;20105;48.764;9.178;2022-09-09T08:28:52;19.60;99.90
33793;DHT22;20105;48.764;9.178;2022-09-09T08:31:42;19.60;99.90
33793;DHT22;20105;48.764;9.178;2022-09-09T08:34:07;19.80;99.90
33793;DHT22;20105;48.764;9.178;2022-09-09T08:36:44;19.80;99.90
33793;DHT22;20105;48.764;9.178;2022-09-09T08:39:12;20.10;99.90
33793;DHT22;20105;48.764;9.178;2022-09-09T08:45:19;20.50;97.80
33793;DHT22;20105;48.764;9.178;2022-09-09T08:48:15;20.50;97.60
33793;DHT22;20105;48.764;9.178;2022-09-09T08:50:42;20.40;98.30
33793;DHT22;20105;48.764;9.178;2022-09-09T08:53:21;20.30;98.50
33793;DHT22;20105;48.764;9.178;2022-09-09T08:55:51;20.10;99.20
33793;DHT22;20105;48.764;9.178;2022-09-09T08:58:35;20.40;98.20
33793;DHT22;20105;48.764;9.178;2022-09-09T09:06:32;20.10;96.70
33793;DHT22;20105;48.764;9.178;2022-09-09T09:09:32;20.30;95.90
33793;DHT22;20105;48.764;9.178;2022-09-09T09:12:06;20.20;95.90
33793;DHT22;20105;48.764;9.178;2022-09-09T09:14:35;20.10;95.70
33793;DHT22;20105;48.764;9.178;2022-09-09T09:17:23;20.10;95.60
33793;DHT22;20105;48.764;9.178;2022-09-09T09:19:50;20.20;95.50
33793;DHT22;20105;48.764;9.178;2022-09-09T09:22:30;20.30;96.10
33793;DHT22;20105;48.764;9.178;2022-09-09T09:25:21;20.20;97.40
33793;DHT22;20105;48.764;9.178;2022-09-09T09:33:51;18.60;99.90
33793;DHT22;20105;48.764;9.178;2022-09-09T09:36:19;17.70;99.90
33793;DHT22;20105;48.764;9.178;2022-09-09T09:38:54;16.80;99.90
33793;DHT22;20105;48.764;9.178;2022-09-09T09:41:36;16.60;99.90
33793;DHT22;20105;48.764;9.178;2022-09-09T09:44:04;16.70;99.90
33793;DHT22;20105;48.764;9.178;2022-09-09T09:46:31;17.20;99.90
33793;DHT22;20105;48.764;9.178;2022-09-09T09:48:58;17.60;99.90
33793;DHT22;20105;48.764;9.178;2022-09-09T09:51:25;17.90;99.90
33793;DHT22;20105;48.764;9.178;2022-09-09T09:53:51;18.00;99.90
33793;DHT22;20105;48.764;9.178;2022-09-09T09:56:26;18.10;99.90
33793;DHT22;20105;48.764;9.178;2022-09-09T09:58:54;18.40;99.90
33793;DHT22;20105;48.764;9.178;2022-09-09T10:04:01;19.00;99.90
33793;DHT22;20105;48.764;9.178;2022-09-09T10:06:36;19.30;99.90
33793;DHT22;20105;48.764;9.178;2022-09-09T10:09:17;19.40;99.90
33793;DHT22;20105;48.764;9.178;2022-09-09T10:14:30;19.80;99.90
33793;DHT22;20105;48.764;9.178;2022-09-09T10:17:13;20.10;99.80
33793;DHT22;20105;48.764;9.178;2022-09-09T10:19:49;20.00;99.70
33793;DHT22;20105;48.764;9.178;2022-09-09T10:22:28;20.00;99.90
33793;DHT22;20105;48.764;9.178;2022-09-09T10:25:19;20.20;99.90
33793;DHT22;20105;48.764;9.178;2022-09-09T10:39:06;20.90;99.70
33793;DHT22;20105;48.764;9.178;2022-09-09T10:41:44;21.20;97.80
33793;DHT22;20105;48.764;9.178;2022-09-09T10:47:24;20.70;98.60
33793;DHT22;20105;48.764;9.178;2022-09-09T10:53:15;20.60;98.70
33793;DHT22;20105;48.764;9.178;2022-09-09T10:55:44;20.70;98.90
33793;DHT22;20105;48.764;9.178;2022-09-09T10:58:15;20.70;99.30
33793;DHT22;20105;48.764;9.178;2022-09-09T11:00:45;20.60;99.10
33793;DHT22;20105;48.764;9.178;2022-09-09T11:03:21;21.20;99.30
33793;DHT22;20105;48.764;9.178;2022-09-09T11:08:32;22.10;96.30
33793;DHT22;20105;48.764;9.178;2022-09-09T11:11:20;21.90;96.40
33793;DHT22;20105;48.764;9.178;2022-09-09T11:16:27;21.30;96.80
33793;DHT22;20105;48.764;9.178;2022-09-09T11:19:02;21.30;97.10
33793;DHT22;20105;48.764;9.178;2022-09-09T11:21:35;21.50;95.60
33793;DHT22;20105;48.764;9.178;2022-09-09T11:24:06;21.60;93.50
33793;DHT22;20105;48.764;9.178;2022-09-09T11:26:47;20.90;93.50
33793;DHT22;20105;48.764;9.178;2022-09-09T11:32:00;20.70;92.00
33793;DHT22;20105;48.764;9.178;2022-09-09T11:40:25;20.40;93.00
33793;DHT22;20105;48.764;9.178;2022-09-09T11:45:35;20.30;94.20
33793;DHT22;20105;48.764;9.178;2022-09-09T11:48:03;20.10;95.00
33793;DHT22;20105;48.764;9.178;2022-09-09T11:50:37;20.10;94.60
33793;DHT22;20105;48.764;9.178;2022-09-09T11:53:19;19.70;94.80
33793;DHT22;20105;48.764;9.178;2022-09-09T11:56:00;19.60;96.00
33793;DHT22;20105;48.764;9.178;2022-09-09T11:58:27;19.70;95.60
33793;DHT22;20105;48.764;9.178;2022-09-09T12:00:54;19.60;95.80
33793;DHT22;20105;48.764;9.178;2022-09-09T12:06:18;20.10;94.20
33793;DHT22;20105;48.764;9.178;2022-09-09T12:08:49;20.40;93.50
33793;DHT22;20105;48.764;9.178;2022-09-09T12:11:26;20.40;93.50
33793;DHT22;20105;48.764;9.178;2022-09-09T12:13:54;20.40;93.60
33793;DHT22;20105;48.764;9.178;2022-09-09T12:16:31;20.20;94.00
33793;DHT22;20105;48.764;9.178;2022-09-09T12:19:17;20.10;93.70
33793;DHT22;20105;48.764;9.178;2022-09-09T12:21:58;20.10;95.00
33793;DHT22;20105;48.764;9.178;2022-09-09T12:24:37;20.60;93.90
33793;DHT22;20105;48.764;9.178;2022-09-09T12:27:20;21.00;92.50
33793;DHT22;20105;48.764;9.178;2022-09-09T12:30:02;21.00;91.90
33793;DHT22;20105;48.764;9.178;2022-09-09T12:32:28;21.30;91.50
33793;DHT22;20105;48.764;9.178;2022-09-09T12:37:37;21.60;89.40
33793;DHT22;20105;48.764;9.178;2022-09-09T12:40:24;21.40;89.00
33793;DHT22;20105;48.764;9.178;2022-09-09T12:42:50;21.30;88.70
33793;DHT22;20105;48.764;9.178;2022-09-09T12:45:21;21.20;89.00
33793;DHT22;20105;48.764;9.178;2022-09-09T12:48:07;21.10;89.20
33793;DHT22;20105;48.764;9.178;2022-09-09T12:50:37;21.00;90.50
33793;DHT22;20105;48.764;9.178;2022-09-09T12:53:08;20.90;90.90
33793;DHT22;20105;48.764;9.178;2022-09-09T12:55:37;20.90;91.20
33793;DHT22;20105;48.764;9.178;2022-09-09T12:58:05;20.80;92.10
33793;DHT22;20105;48.764;9.178;2022-09-09T13:00:32;20.70;92.50
33793;DHT22;20105;48.764;9.178;2022-09-09T13:03:01;20.70;92.10
33793;DHT22;20105;48.764;9.178;2022-09-09T13:05:34;21.00;92.00
33793;DHT22;20105;48.764;9.178;2022-09-09T13:08:05;21.10;91.70
33793;DHT22;20105;48.764;9.178;2022-09-09T13:10:36;20.90;91.60
33793;DHT22;20105;48.764;9.178;2022-09-09T13:13:04;20.70;92.00
33793;DHT22;20105;48.764;9.178;2022-09-09T13:15:30;20.80;92.00
33793;DHT22;20105;48.764;9.178;2022-09-09T13:17:58;20.80;91.30
33793;DHT22;20105;48.764;9.178;2022-09-09T13:20:26;20.70;91.70
33793;DHT22;20105;48.764;9.178;2022-09-09T13:22:54;21.10;91.40
33793;DHT22;20105;48.764;9.178;2022-09-09T13:25:29;21.20;91.00
33793;DHT22;20105;48.764;9.178;2022-09-09T13:35:34;21.70;90.10
33793;DHT22;20105;48.764;9.178;2022-09-09T13:38:08;21.80;89.00
33793;DHT22;20105;48.764;9.178;2022-09-09T13:40:35;22.00;88.50
33793;DHT22;20105;48.764;9.178;2022-09-09T13:43:01;22.00;87.60
33793;DHT22;20105;48.764;9.178;2022-09-09T13:45:27;21.90;87.90
33793;DHT22;20105;48.764;9.178;2022-09-09T13:47:53;21.30;88.60
33793;DHT22;20105;48.764;9.178;2022-09-09T13:50:27;21.40;89.20
33793;DHT22;20105;48.764;9.178;2022-09-09T13:52:54;21.60;88.80
33793;DHT22;20105;48.764;9.178;2022-09-09T13:55:24;21.70;89.20
33793;DHT22;20105;48.764;9.178;2022-09-09T13:58:03;21.70;89.70
33793;DHT22;20105;48.764;9.178;2022-09-09T14:00:32;21.70;89.80
33793;DHT22;20105;48.764;9.178;2022-09-09T14:02:58;22.20;88.40
33793;DHT22;20105;48.764;9.178;2022-09-09T14:05:29;22.40;87.80
33793;DHT22;20105;48.764;9.178;2022-09-09T14:07:55;22.70;87.50
33793;DHT22;20105;48.764;9.178;2022-09-09T14:10:21;22.50;87.00
33793;DHT22;20105;48.764;9.178;2022-09-09T14:12:47;22.50;87.20
33793;DHT22;20105;48.764;9.178;2022-09-09T14:15:13;22.60;87.10
33793;DHT22;20105;48.764;9.178;2022-09-09T14:17:39;22.70;86.90
33793;DHT22;20105;48.764;9.178;2022-09-09T14:20:07;22.50;86.90
33793;DHT22;20105;48.764;9.178;2022-09-09T14:22:33;22.40;87.40
33793;DHT22;20105;48.764;9.178;2022-09-09T14:24:58;22.60;87.10
33793;DHT22;20105;48.764;9.178;2022-09-09T14:27:24;22.70;86.20
33793;DHT22;20105;48.764;9.178;2022-09-09T14:29:51;22.70;86.80
33793;DHT22;20105;48.764;9.178;2022-09-09T14:32:17;22.10;87.10
33793;DHT22;20105;48.764;9.178;2022-09-09T14:34:43;22.00;87.40
33793;DHT22;20105;48.764;9.178;2022-09-09T14:37:08;22.30;87.20
33793;DHT22;20105;48.764;9.178;2022-09-09T14:39:34;22.70;85.90
33793;DHT22;20105;48.764;9.178;2022-09-09T14:41:59;22.70;85.60
33793;DHT22;20105;48.764;9.178;2022-09-09T14:44:26;22.70;85.60
33793;DHT22;20105;48.764;9.178;2022-09-09T14:46:51;22.50;86.00
33793;DHT22;20105;48.764;9.178;2022-09-09T14:49:17;22.50;86.40
33793;DHT22;20105;48.764;9.178;2022-09-09T14:51:42;22.50;86.20
33793;DHT22;20105;48.764;9.178;2022-09-09T14:54:08;22.60;86.00
33793;DHT22;20105;48.764;9.178;2022-09-09T14:56:34;22.60;85.80
33793;DHT22;20105;48.764;9.178;2022-09-09T14:59:00;22.30;86.20
33793;DHT22;20105;48.764;9.178;2022-09-09T15:01:26;22.30;86.40
33793;DHT22;20105;48.764;9.178;2022-09-09T15:03:59;22.50;86.10
33793;DHT22;20105;48.764;9.178;2022-09-09T15:06:26;22.60;85.40
33793;DHT22;20105;48.764;9.178;2022-09-09T15:08:53;22.70;85.40
33793;DHT22;20105;48.764;9.178;2022-09-09T15:11:20;22.70;85.10
33793;DHT22;20105;48.764;9.178;2022-09-09T15:13:46;22.70;84.50
33793;DHT22;20105;48.764;9.178;2022-09-09T15:16:17;22.50;85.20
33793;DHT22;20105;48.764;9.178;2022-09-09T15:18:44;22.20;85.80
33793;DHT22;20105;48.764;9.178;2022-09-09T15:21:15;21.90;86.30
33793;DHT22;20105;48.764;9.178;2022-09-09T15:23:42;21.80;86.60
33793;DHT22;20105;48.764;9.178;2022-09-09T15:26:09;21.60;87.00
33793;DHT22;20105;48.764;9.178;2022-09-09T15:28:36;21.60;87.50
33793;DHT22;20105;48.764;9.178;2022-09-09T15:31:24;21.70;87.30
33793;DHT22;20105;48.764;9.178;2022-09-09T15:33:54;21.90;87.40
33793;DHT22;20105;48.764;9.178;2022-09-09T15:36:37;22.00;86.70
33793;DHT22;20105;48.764;9.178;2022-09-09T15:39:06;21.90;87.30
33793;DHT22;20105;48.764;9.178;2022-09-09T15:41:32;21.90;86.90
33793;DHT22;20105;48.764;9.178;2022-09-09T15:43:59;21.80;87.10
33793;DHT22;20105;48.764;9.178;2022-09-09T15:46:35;21.80;87.50
33793;DHT22;20105;48.764;9.178;2022-09-09T15:49:12;21.70;87.60
33793;DHT22;20105;48.764;9.178;2022-09-09T15:51:40;21.60;87.60
33793;DHT22;20105;48.764;9.178;2022-09-09T15:54:07;21.40;88.10
33793;DHT22;20105;48.764;9.178;2022-09-09T15:56:34;21.30;87.90
33793;DHT22;20105;48.764;9.178;2022-09-09T15:59:00;21.30;87.80
33793;DHT22;20105;48.764;9.178;2022-09-09T16:01:29;21.20;87.70
33793;DHT22;20105;48.764;9.178;2022-09-09T16:03:56;21.10;87.60
33793;DHT22;20105;48.764;9.178;2022-09-09T16:06:23;21.00;87.90
33793;DHT22;20105;48.764;9.178;2022-09-09T16:08:50;21.00;88.00
33793;DHT22;20105;48.764;9.178;2022-09-09T16:11:20;20.90;88.20
33793;DHT22;20105;48.764;9.178;2022-09-09T16:13:47;20.90;87.90
33793;DHT22;20105;48.764;9.178;2022-09-09T16:16:19;21.00;87.90
33793;DHT22;20105;48.764;9.178;2022-09-09T16:18:57;21.00;88.10
33793;DHT22;20105;48.764;9.178;2022-09-09T16:21:45;20.90;88.40
33793;DHT22;20105;48.764;9.178;2022-09-09T16:24:13;20.90;88.40
33793;DHT22;20105;48.764;9.178;2022-09-09T16:26:45;20.80;88.70
33793;DHT22;20105;48.764;9.178;2022-09-09T16:29:11;20.80;88.90
33793;DHT22;20105;48.764;9.178;2022-09-09T16:31:37;20.70;89.00
33793;DHT22;20105;48.764;9.178;2022-09-09T16:34:03;20.70;89.10
33793;DHT22;20105;48.764;9.178;2022-09-09T16:36:31;20.70;89.70
33793;DHT22;20105;48.764;9.178;2022-09-09T16:39:11;20.70;89.70
33793;DHT22;20105;48.764;9.178;2022-09-09T16:41:38;20.70;89.80
33793;DHT22;20105;48.764;9.178;2022-09-09T16:44:06;20.40;91.30
33793;DHT22;20105;48.764;9.178;2022-09-09T16:46:35;20.00;92.50
33793;DHT22;20105;48.764;9.178;2022-09-09T16:49:03;19.90;93.00
33793;DHT22;20105;48.764;9.178;2022-09-09T16:51:31;19.90;93.40
33793;DHT22;20105;48.764;9.178;2022-09-09T16:53:59;19.90;92.70
33793;DHT22;20105;48.764;9.178;2022-09-09T16:56:27;19.80;92.50
33793;DHT22;20105;48.764;9.178;2022-09-09T16:58:55;19.80;92.10
33793;DHT22;20105;48.764;9.178;2022-09-09T17:01:22;19.70;92.50
33793;DHT22;20105;48.764;9.178;2022-09-09T17:03:55;19.50;92.80
33793;DHT22;20105;48.764;9.178;2022-09-09T17:06:21;19.30;93.20
33793;DHT22;20105;48.764;9.178;2022-09-09T17:08:48;19.10;94.00
33793;DHT22;20105;48.764;9.178;2022-09-09T17:11:18;18.80;94.20
33793;DHT22;20105;48.764;9.178;2022-09-09T17:13:47;18.60;95.00
33793;DHT22;20105;48.764;9.178;2022-09-09T17:16:16;18.60;95.30
33793;DHT22;20105;48.764;9.178;2022-09-09T17:18:42;18.60;95.40
33793;DHT22;20105;48.764;9.178;2022-09-09T17:21:13;18.70;95.30
33793;DHT22;20105;48.764;9.178;2022-09-09T17:23:40;18.60;95.60
33793;DHT22;20105;48.764;9.178;2022-09-09T17:26:08;18.50;96.10
33793;DHT22;20105;48.764;9.178;2022-09-09T17:28:35;18.50;96.70
33793;DHT22;20105;48.764;9.178;2022-09-09T17:31:01;18.40;96.80
33793;DHT22;20105;48.764;9.178;2022-09-09T17:33:31;18.30;97.20
33793;DHT22;20105;48.764;9.178;2022-09-09T17:35:59;18.30;97.50
33793;DHT22;20105;48.764;9.178;2022-09-09T17:38:26;18.20;98.00